Latest Weather Observations for Roma

IDQ60801

Issued at 9:02 am EST Tuesday 3 March 2015 (issued every 30 minutes, with the page automatically refreshed every 10 minutes)

About weather observations | Map of weather stations | Latest weather observations for QLD | Other Formats
Station Details ID: 043091 Name: ROMA AIRPORT Lat: -26.55 Lon: 148.77 Height: 307.38 m
Data from the previous 72 hours. | See also: Recent months at Roma
Date/Time
EST
Temp
°C
App
Temp
°C
Dew
Point
Rel
Hum
%
Delta-T
°C
Wind Press
QNH
hPa
Press
MSL
hPa
Rain
since 9 am
mm
Dir
 
Spd
km/h
Gust
km/h
Spd
kts
Gust
kts
03/09:00am 27.1 25.6 16.7 53 6.5 NE 20 30 11 16 1016.6 1015.0 0.0
03/08:30am 26.8 24.8 17.3 56 6.0 NNE 24 32 13 17 1016.4 1014.8 0.0
03/08:00am 25.4 23.7 17.3 61 5.1 NNE 22 30 12 16 1016.3 1014.7 0.0
03/07:30am 24.4 23.4 17.9 67 4.1 NNE 20 30 11 16 1015.8 1014.2 0.0
03/07:00am 23.5 22.8 17.3 68 3.9 NE 17 22 9 12 1015.4 1013.8 0.0
03/06:30am 22.3 22.6 17.0 72 3.3 NE 11 15 6 8 1015.5 1013.9 0.0
03/06:00am 22.4 21.1 16.9 71 3.4 NE 19 24 10 13 1015.1 1013.5 0.0
03/05:30am 22.5 21.6 16.8 70 3.5 ENE 17 20 9 11 1014.9 1013.3 0.0
03/05:00am 23.0 21.6 17.0 69 3.7 NE 20 28 11 15 1014.4 1012.7 0.0
03/04:30am 23.2 21.3 16.7 67 4.0 NE 22 30 12 16 1014.1 1012.4 0.0
03/04:00am 23.4 22.1 16.9 67 4.0 NE 19 30 10 16 1013.8 1012.1 0.0
03/03:30am 23.8 21.9 16.8 65 4.4 NE 22 32 12 17 1013.4 1011.8 0.0
03/03:00am 24.0 21.2 17.3 66 4.2 NE 28 39 15 21 1013.3 1011.7 0.0
03/02:30am 24.1 22.8 18.1 69 3.8 NE 22 33 12 18 1013.3 1011.7 0.0
03/02:00am 24.6 21.9 18.5 69 3.9 NE 30 41 16 22 1013.1 1011.5 0.0
03/01:30am 25.2 23.0 18.6 67 4.2 NE 28 39 15 21 1013.3 1011.7 0.0
03/01:00am 25.7 23.1 18.6 65 4.6 NE 30 43 16 23 1013.3 1011.7 0.0
03/12:51am 25.7 23.5 18.6 65 4.6 NE 28 46 15 25 1013.2 1011.6 0.0
03/12:30am 26.2 24.8 18.8 63 4.8 NE 24 33 13 18 1013.2 1011.6 0.0
03/12:00am 26.8 25.7 18.6 60 5.3 NE 22 33 12 18 1013.1 1011.5 0.0
 
Date/Time
EST
Temp
°C
App
Temp
°C
Dew
Point
Rel
Hum
%
Delta-T
°C
Wind Press
QNH
hPa
Press
MSL
hPa
Rain
since 9 am
mm
Dir
 
Spd
km/h
Gust
km/h
Spd
kts
Gust
kts
02/11:30pm 27.2 25.9 18.2 58 5.8 NE 22 32 12 17 1012.9 1011.3 0.0
02/11:00pm 27.8 26.6 17.6 53 6.5 NE 20 28 11 15 1012.7 1011.1 0.0
02/10:30pm 27.9 26.8 17.7 53 6.5 NE 20 30 11 16 1012.5 1010.9 0.0
02/10:00pm 27.8 26.8 17.6 53 6.5 NE 19 24 10 13 1012.2 1010.6 0.0
02/09:30pm 27.0 26.5 16.9 54 6.4 NE 15 22 8 12 1012.2 1010.6 0.0
02/09:00pm 27.0 27.0 16.3 52 6.7 NNE 11 19 6 10 1011.8 1010.1 0.0
02/08:30pm 27.8 29.3 16.7 50 7.0 E 4 6 2 3 1011.3 1009.6 0.0
02/08:00pm 28.4 29.0 15.7 46 7.9 ENE 7 9 4 5 1010.8 1009.1 0.0
02/07:30pm 29.1 29.6 15.6 44 8.4 E 7 9 4 5 1010.4 1008.7 0.0
02/07:00pm 30.3 29.9 14.0 37 10.0 E 9 9 5 5 1010.0 1008.4 0.0
02/06:30pm 32.1 31.1 13.3 31 11.5 ESE 11 15 6 8 1009.5 1007.9 0.0
02/06:00pm 34.0 33.6 14.0 30 12.4 E 9 13 5 7 1009.3 1007.7 0.0
02/05:30pm 35.9 33.9 12.8 25 14.1 ESE 15 20 8 11 1008.9 1007.2 0.0
02/05:08pm 36.3 33.7 11.9 23 14.8 ENE 17 39 9 21 1008.7 1007.0 0.0
02/05:00pm 35.9 34.3 12.8 25 14.2 ENE 13 24 7 13 1008.8 1007.1 0.0
02/04:30pm 37.1 34.6 11.1 21 15.6 ESE 15 20 8 11 1008.6 1006.9 0.0
02/04:00pm 36.8 34.9 12.9 24 14.7 ESE 15 26 8 14 1008.5 1006.8 0.0
02/03:30pm 36.7 35.2 14.1 26 14.1 ESE 15 28 8 15 1008.7 1007.0 0.0
02/03:00pm 35.9 34.0 15.1 29 13.2 ENE 19 28 10 15 1009.0 1007.4 0.0
02/02:30pm 36.1 35.0 16.3 31 12.7 ENE 17 24 9 13 1009.4 1007.8 0.0
02/02:00pm 36.1 35.7 16.3 31 12.8 E 13 26 7 14 1009.8 1008.2 0.0
02/01:30pm 35.6 35.1 15.9 31 12.6 NE 13 24 7 13 1010.5 1008.8 0.0
02/01:00pm 34.8 33.1 13.6 28 13.1 ENE 15 24 8 13 1010.9 1009.2 0.0
02/12:30pm 35.7 35.4 16.4 31 12.4 E 13 22 7 12 1011.3 1009.6 0.0
02/12:00pm 33.9 35.0 18.8 41 10.0 E 11 19 6 10 1011.8 1010.1 0.0
02/11:30am 34.1 35.8 20.1 43 9.4 ENE 11 20 6 11 1012.2 1010.6 0.0
02/11:00am 32.6 34.0 19.5 46 8.7 ENE 11 17 6 9 1012.7 1011.1 0.0
02/10:30am 31.7 33.4 19.3 47 8.2 NNE 9 15 5 8 1012.8 1011.2 0.0
02/10:00am 30.8 33.1 20.7 55 6.8 NNE 9 17 5 9 1012.6 1011.0 0.0
02/09:30am 29.8 31.9 20.9 59 6.0 N 11 17 6 9 1012.6 1011.0 0.0
02/09:00am 29.0 30.6 20.7 61 5.6 NNE 13 20 7 11 1012.6 1011.0 8.8
02/08:30am 27.6 29.2 20.7 66 4.6 NNE 13 17 7 9 1012.5 1010.9 8.8
02/08:00am 26.4 28.8 20.9 72 3.7 NE 9 15 5 8 1012.3 1010.7 8.8
02/07:30am 24.5 27.4 20.6 79 2.6 NE 6 9 3 5 1012.1 1010.5 8.8
02/07:00am 23.9 27.3 21.0 84 1.9 E 4 7 2 4 1011.8 1010.1 8.8
02/06:30am 21.9 25.8 20.4 91 1.0 CALM 0 0 0 0 1011.5 1009.8 8.8
02/06:00am 21.3 24.8 19.6 90 1.1 CALM 0 0 0 0 1010.7 1009.0 8.8
02/05:30am 21.4 24.9 19.5 89 1.2 CALM 0 0 0 0 1010.0 1008.4 8.8
02/05:00am 21.9 24.5 20.0 89 1.2 NE 6 7 3 4 1009.8 1008.2 8.8
02/04:30am 21.9 24.5 20.0 89 1.2 E 6 7 3 4 1009.8 1008.2 8.8
02/04:00am 21.9 24.0 20.2 90 1.1 SE 9 11 5 6 1009.4 1007.8 8.8
02/03:30am 21.8 24.2 20.1 90 1.1 ESE 7 9 4 5 1009.0 1007.4 8.8
02/03:00am 22.1 24.6 20.2 89 1.2 NE 7 9 4 5 1008.7 1007.0 8.8
02/02:30am 21.8 24.3 19.9 89 1.2 NE 6 7 3 4 1008.7 1007.0 8.8
02/02:00am 22.5 25.3 20.8 90 1.1 N 7 7 4 4 1008.9 1007.2 8.8
02/01:30am 22.5 25.1 20.4 88 1.4 ENE 7 7 4 4 1009.3 1007.7 8.8
02/01:00am 22.6 25.8 20.5 88 1.4 ESE 4 9 2 5 1009.6 1008.0 8.8
02/12:30am 23.0 27.0 20.5 86 1.6 CALM 0 0 0 0 1009.7 1008.1 8.8
02/12:00am 23.1 26.7 20.6 86 1.6 NE 2 6 1 3 1009.4 1007.8 8.8
 
Date/Time
EST
Temp
°C
App
Temp
°C
Dew
Point
Rel
Hum
%
Delta-T
°C
Wind Press
QNH
hPa
Press
MSL
hPa
Rain
since 9 am
mm
Dir
 
Spd
km/h
Gust
km/h
Spd
kts
Gust
kts
01/11:30pm 23.3 26.0 20.6 85 1.8 E 7 9 4 5 1009.6 1008.0 8.8
01/11:00pm 23.6 26.4 20.5 83 2.0 ENE 6 7 3 4 1009.7 1008.1 8.8
01/10:30pm 23.9 26.6 20.6 82 2.2 NE 7 9 4 5 1009.6 1008.0 8.8
01/10:00pm 23.9 26.2 20.6 82 2.2 NNE 9 11 5 6 1009.4 1007.8 8.8
01/09:30pm 24.6 26.6 20.7 79 2.6 NE 11 15 6 8 1009.3 1007.7 8.8
01/09:00pm 25.3 26.4 20.5 75 3.2 NNE 15 20 8 11 1009.1 1007.5 8.8
01/08:30pm 25.4 26.7 20.9 76 3.0 NNE 15 20 8 11 1009.1 1007.5 8.8
01/08:00pm 24.8 27.2 20.9 79 2.6 E 9 13 5 7 1008.6 1006.9 8.8
01/07:30pm 25.1 28.4 21.4 80 2.5 NNE 6 7 3 4 1007.8 1006.1 8.8
01/07:00pm 25.4 27.7 20.6 75 3.2 N 9 13 5 7 1007.2 1005.5 8.8
01/06:30pm 25.7 26.7 20.3 72 3.6 N 15 20 8 11 1006.6 1005.0 8.8
01/06:00pm 26.3 27.3 20.2 69 4.0 NNE 15 19 8 10 1006.4 1004.8 8.8
01/05:30pm 26.7 25.5 20.1 67 4.4 NNE 26 35 14 19 1006.6 1005.0 8.8
01/05:00pm 26.5 26.5 21.7 75 3.2 NE 24 30 13 16 1006.6 1005.0 8.8
01/04:37pm 25.5 27.0 23.0 86 1.7 N 20 37 11 20 1006.7 1005.1 8.8
01/04:30pm 25.1 24.7 22.4 85 1.8 NE 28 39 15 21 1006.5 1004.9 8.8
01/04:15pm 23.6 20.1 20.5 83 2.0 WSW 39 61 21 33 1007.0 1005.3 6.2
01/04:07pm 23.6 17.4 19.1 76 2.9 WSW 50 61 27 33 1007.0 1005.3 0.6
01/04:00pm 26.2 21.7 18.3 61 5.1 WSW 39 61 21 33 1006.4 1004.8 0.0
01/03:54pm 31.5 31.0 17.0 41 9.3 WNW 15 46 8 25 1006.3 1004.7 0.0
01/03:30pm 34.5 34.3 16.8 34 11.4 NE 13 20 7 11 1005.3 1003.6 0.0
01/03:00pm 35.7 36.5 16.4 31 12.5 SE 7 13 4 7 1006.0 1004.3 0.0
01/02:30pm 36.1 35.8 17.3 33 12.3 NNE 15 24 8 13 1006.4 1004.8 0.0
01/02:00pm 35.6 34.9 17.3 33 11.9 NNE 17 35 9 19 1007.1 1005.4 0.0
01/01:30pm 35.4 34.8 17.6 35 11.6 N 17 26 9 14 1007.6 1005.9 0.0
01/01:00pm 34.9 34.1 18.0 36 11.1 N 19 26 10 14 1008.2 1006.5 0.0
01/12:30pm 32.8 31.3 17.8 40 9.8 N 22 32 12 17 1008.7 1007.0 0.0
01/12:00pm 34.1 33.4 18.6 40 10.2 N 20 35 11 19 1009.2 1007.6 0.0
01/11:30am 31.1 29.6 18.5 47 8.2 N 24 32 13 17 1009.7 1008.1 0.0
01/11:00am 31.3 29.4 17.6 44 8.9 N 24 33 13 18 1010.1 1008.5 0.0
01/10:30am 30.7 28.7 18.4 47 8.0 NNE 26 35 14 19 1010.5 1008.8 0.0
01/10:00am 30.3 28.9 18.7 50 7.6 NE 24 32 13 17 1010.7 1009.0 0.0
01/09:30am 29.4 27.7 18.2 51 7.3 NNE 24 35 13 19 1010.8 1008.8 0.0
01/09:00am 27.2 26.4 18.5 59 5.6 N 20 28 11 15 1011.0 1009.0 0.0
01/08:30am 28.2 27.5 18.6 56 6.2 NNE 20 32 11 17 1010.6 1008.6 0.0
01/08:00am 26.2 24.5 18.1 61 5.2 NNE 24 32 13 17 1010.4 1008.4 0.0
01/07:30am 24.9 23.1 17.9 65 4.4 NNE 24 33 13 18 1010.3 1008.3 0.0
01/07:00am 24.0 23.2 18.0 69 3.8 NNE 19 26 10 14 1009.9 1008.0 0.0
01/06:30am 22.9 21.8 17.8 73 3.2 NNE 20 28 11 15 1009.3 1007.4 0.0
01/06:00am 22.5 22.4 17.8 75 3.0 NNE 15 20 8 11 1009.0 1007.1 0.0
01/05:30am 22.7 21.7 18.0 75 3.0 NNE 20 30 11 16 1008.7 1006.8 0.0
01/05:00am 23.1 22.4 18.6 76 2.9 NE 20 28 11 15 1008.6 1006.7 0.0
01/04:30am 23.7 23.3 19.4 77 2.8 NE 20 32 11 17 1008.2 1006.3 0.0
01/04:00am 24.1 23.8 19.6 76 2.9 NE 20 30 11 16 1008.0 1006.0 0.0
01/03:30am 24.2 24.1 19.5 75 3.1 NNE 19 26 10 14 1007.7 1005.7 0.0
01/03:00am 24.5 24.2 19.1 72 3.5 NNE 19 28 10 15 1007.5 1005.5 0.0
01/02:30am 25.0 24.4 18.9 69 3.9 NNE 20 30 11 16 1007.4 1005.4 0.0
01/02:00am 25.3 24.8 18.7 67 4.3 NNE 19 28 10 15 1007.5 1005.5 0.0
01/01:30am 25.7 25.0 18.6 65 4.6 NNE 20 28 11 15 1007.6 1005.6 0.0
01/01:00am 25.8 25.7 18.7 65 4.6 NE 17 20 9 11 1007.8 1005.8 0.0
01/12:30am 26.0 26.0 18.9 65 4.6 NNE 17 24 9 13 1007.9 1005.9 0.0
01/12:00am 26.7 26.3 18.8 62 5.1 NNE 19 24 10 13 1008.2 1006.3 0.0
 
Date/Time
EST
Temp
°C
App
Temp
°C
Dew
Point
Rel
Hum
%
Delta-T
°C
Wind Press
QNH
hPa
Press
MSL
hPa
Rain
since 9 am
mm
Dir
 
Spd
km/h
Gust
km/h
Spd
kts
Gust
kts
28/11:30pm 27.2 26.8 18.8 60 5.4 NNE 19 24 10 13 1008.1 1006.1 0.0
28/11:00pm 27.6 26.9 18.6 58 5.8 NE 20 32 11 17 1008.1 1006.1 0.0
28/10:30pm 27.9 26.9 18.9 58 5.9 NE 22 30 12 16 1008.1 1006.1 0.0
28/10:00pm 28.2 27.2 18.9 57 6.1 NE 22 32 12 17 1008.2 1006.3 0.0
28/09:30pm 28.5 27.1 18.9 56 6.3 NE 24 33 13 18 1008.0 1006.0 0.0
28/09:00pm 28.7 27.4 19.1 56 6.3 NE 24 32 13 17 1008.0 1006.0 0.0
28/08:30pm 28.2 28.5 19.7 60 5.6 NNE 17 20 9 11 1007.7 1005.7 0.0
28/08:00pm 27.9 29.4 19.7 61 5.4 NE 11 13 6 7 1007.5 1005.5 0.0
28/07:30pm 27.8 30.0 19.3 60 5.6 N 6 9 3 5 1007.2 1005.2 0.0
28/07:00pm 28.7 29.4 18.8 55 6.5 NNE 13 24 7 13 1006.7 1004.8 0.0
28/06:33pm 29.5 25.4 18.3 51 7.3 N 37 56 20 30 1005.9 1004.0 0.0
28/06:30pm 29.4 25.9 17.9 50 7.4 N 33 54 18 29 1005.9 1004.0 0.0
28/06:24pm 30.6 28.8 17.0 44 8.7 NNE 22 46 12 25 1006.1 1004.2 0.0
28/06:00pm 29.1 31.1 20.0 58 6.1 NNW 9 13 5 7 1005.8 1003.9 0.0
28/05:30pm 33.0 31.6 15.5 35 11.0 NNE 17 24 9 13 1005.9 1004.0 0.0
28/05:00pm 33.5 31.5 15.5 34 11.4 NE 20 28 11 15 1005.4 1003.5 0.0
28/04:30pm 35.1 32.9 14.9 29 12.7 NE 20 28 11 15 1005.0 1003.0 0.0
28/04:00pm 34.4 32.7 14.8 30 12.3 NNE 17 24 9 13 1005.2 1003.2 0.0
28/03:30pm 34.3 32.4 15.2 31 12.0 NE 19 28 10 15 1005.5 1003.6 0.0
28/03:00pm 34.8 32.9 15.2 31 12.4 NE 19 26 10 14 1005.3 1003.4 0.0
28/02:30pm 35.3 33.9 14.6 29 13.0 NNE 15 22 8 12 1005.6 1003.7 0.0
28/02:00pm 35.9 36.1 17.6 34 12.0 ENE 13 24 7 13 1005.9 1004.0 0.0
28/01:30pm 35.8 35.2 17.5 34 12.0 NNE 17 26 9 14 1006.6 1004.7 0.0
28/01:00pm 35.1 34.4 18.2 36 11.2 N 19 28 10 15 1007.2 1005.2 0.0
28/12:30pm 34.7 34.4 19.1 39 10.4 NE 19 30 10 16 1007.6 1005.6 0.0
28/12:00pm 33.5 31.9 18.4 40 9.9 NNE 24 39 13 21 1008.1 1006.1 0.0
28/11:30am 32.8 31.9 18.2 42 9.6 NNE 20 32 11 17 1008.4 1006.5 0.0
28/11:00am 32.1 31.0 18.7 45 8.8 NNE 22 33 12 18 1008.8 1006.9 0.0
28/10:30am 31.2 30.4 18.5 46 8.3 NNE 20 32 11 17 1009.3 1007.4 0.0
28/10:00am 30.6 29.8 19.3 51 7.5 NE 22 32 12 17 1009.6 1007.7 0.0
28/09:30am 29.1 27.9 18.5 52 6.9 NNE 22 32 12 17 1009.8 1007.9 0.0

Other Formats:

Comma delimited format used in spreadsheet applications
http://www.bom.gov.au/fwo/IDQ60801/IDQ60801.94515.axf

JavaScript Object Notation format (JSON) in row-major order
http://www.bom.gov.au/fwo/IDQ60801/IDQ60801.94515.json